Station History

Weather Underground - logo

Station Historical Data
Daily Summary for February 16, 2018 Units:  English    Metric   Both
« Previous Day
Next Day »
Daily Weekly Monthly Yearly Custom
  High: Low: Average:
Temperature: 66.8 °F 35.2 °F 50 °F
Dew Point: 43.7 °F 31.9 °F 37.1 °F
Humidity: 91 % 32 % 65 %
Wind Speed: 5.8 mph 0.0 mph 0.6 mph
Wind Gust: 5.8 mph - -
Wind:- - WSW
Pressure: 30.33 in 30.14 in -
Precipitation: 0.00 in    
Historical Graphs
 
 
Tabular Data for February 16, 2018
Time Temperature Dew Point Pressure Wind Wind Speed Wind Gust Humidity Rainfall Rate (Hourly)
00:01 41.2 °F 36.7 °F 30.32 in Calm     84 % 0.00 in
00:06 41.2 °F 36.4 °F 30.32 in Calm     83 % 0.00 in
00:11 41.4 °F 36.6 °F 30.32 in Calm     83 % 0.00 in
00:16 41.5 °F 36.7 °F 30.32 in Calm     83 % 0.00 in
00:21 41.6 °F 36.5 °F 30.32 in Calm     82 % 0.00 in
00:26 41.4 °F 36.3 °F 30.32 in Calm     82 % 0.00 in
00:31 41.2 °F 36.4 °F 30.32 in Calm     83 % 0.00 in
00:36 41.3 °F 36.5 °F 30.32 in Calm     83 % 0.00 in
00:41 41.7 °F 36.9 °F 30.31 in Calm     83 % 0.00 in
00:46 41.5 °F 36.1 °F 30.32 in Calm     81 % 0.00 in
00:51 41.3 °F 36.2 °F 30.31 in Calm     82 % 0.00 in
00:56 41.3 °F 36.5 °F 30.31 in Calm     83 % 0.00 in
01:01 40.8 °F 35.7 °F 30.31 in Calm     82 % 0.00 in
01:06 40.8 °F 36.0 °F 30.30 in Calm     83 % 0.00 in
01:11 41.1 °F 36.0 °F 30.30 in Calm     82 % 0.00 in
01:16 41.3 °F 36.2 °F 30.30 in Calm     82 % 0.00 in
01:21 41.2 °F 36.1 °F 30.30 in Calm     82 % 0.00 in
01:26 41.2 °F 36.1 °F 30.30 in Calm     82 % 0.00 in
01:31 40.8 °F 35.7 °F 30.30 in Calm     82 % 0.00 in
01:36 40.5 °F 35.7 °F 30.30 in Calm     83 % 0.00 in
01:41 40.5 °F 36.0 °F 30.29 in Calm     84 % 0.00 in
01:46 40.5 °F 35.7 °F 30.29 in Calm     83 % 0.00 in
01:51 40.4 °F 35.3 °F 30.29 in Calm     82 % 0.00 in
01:56 40.0 °F 35.6 °F 30.29 in Calm     84 % 0.00 in
02:01 39.7 °F 35.3 °F 30.28 in Calm     84 % 0.00 in
02:06 39.5 °F 35.1 °F 30.28 in South 4.6 mph   84 % 0.00 in
02:11 39.3 °F 35.2 °F 30.28 in Calm     85 % 0.00 in
02:16 39.1 °F 35.0 °F 30.28 in Calm     85 % 0.00 in
02:21 38.6 °F 33.9 °F 30.28 in Calm     83 % 0.00 in
02:26 38.1 °F 33.7 °F 30.28 in Calm     84 % 0.00 in
02:31 37.8 °F 33.7 °F 30.28 in Calm     85 % 0.00 in
02:37 37.5 °F 33.4 °F 30.28 in Calm     85 % 0.00 in
02:42 37.1 °F 33.0 °F 30.28 in Calm     85 % 0.00 in
02:47 37.0 °F 33.2 °F 30.28 in Calm     86 % 0.00 in
02:52 36.9 °F 33.4 °F 30.28 in Calm     87 % 0.00 in
02:57 37.2 °F 34.0 °F 30.28 in Calm     88 % 0.00 in
03:02 37.4 °F 34.2 °F 30.28 in Calm     88 % 0.00 in
03:07 37.6 °F 34.1 °F 30.28 in Calm     87 % 0.00 in
03:12 37.9 °F 34.4 °F 30.28 in Calm     87 % 0.00 in
03:17 38.2 °F 34.4 °F 30.28 in Calm     86 % 0.00 in
03:22 38.3 °F 34.5 °F 30.28 in Calm     86 % 0.00 in
03:27 38.1 °F 34.0 °F 30.28 in Calm     85 % 0.00 in
03:32 38.0 °F 34.2 °F 30.28 in Calm     86 % 0.00 in
03:37 37.8 °F 34.0 °F 30.28 in Calm     86 % 0.00 in
03:42 37.9 °F 34.4 °F 30.28 in Calm     87 % 0.00 in
03:47 37.8 °F 34.3 °F 30.28 in Calm     87 % 0.00 in
03:52 38.0 °F 34.2 °F 30.28 in Calm     86 % 0.00 in
03:57 37.8 °F 34.0 °F 30.27 in Calm     86 % 0.00 in
04:02 37.6 °F 33.8 °F 30.27 in Calm     86 % 0.00 in
04:07 37.3 °F 33.5 °F 30.27 in Calm     86 % 0.00 in
04:12 37.1 °F 33.3 °F 30.27 in Calm     86 % 0.00 in
04:17 36.9 °F 33.4 °F 30.27 in Calm     87 % 0.00 in
04:22 37.0 °F 33.8 °F 30.27 in Calm     88 % 0.00 in
04:27 37.2 °F 34.0 °F 30.27 in Calm     88 % 0.00 in
04:32 37.3 °F 33.8 °F 30.27 in Calm     87 % 0.00 in
04:37 37.5 °F 34.0 °F 30.27 in Calm     87 % 0.00 in
04:42 37.6 °F 34.4 °F 30.27 in Calm     88 % 0.00 in
04:47 37.7 °F 34.5 °F 30.27 in Calm     88 % 0.00 in
04:52 37.7 °F 34.5 °F 30.27 in Calm     88 % 0.00 in
04:57 37.6 °F 34.4 °F 30.27 in Calm     88 % 0.00 in
05:02 37.4 °F 34.2 °F 30.27 in Calm   0.2 mph 88 % 0.00 in
05:07 36.5 °F 32.4 °F 30.27 in Calm     85 % 0.00 in
05:12 35.7 °F 31.9 °F 30.27 in Calm     86 % 0.00 in
05:17 35.4 °F 31.9 °F 30.27 in Calm     87 % 0.00 in
05:22 35.2 °F 32.0 °F 30.27 in Calm     88 % 0.00 in
05:27 35.4 °F 32.5 °F 30.27 in Calm     89 % 0.00 in
05:32 35.5 °F 32.6 °F 30.27 in Calm     89 % 0.00 in
05:37 35.6 °F 32.7 °F 30.27 in Calm     89 % 0.00 in
05:42 35.5 °F 32.9 °F 30.27 in Calm     90 % 0.00 in
05:47 35.5 °F 32.9 °F 30.27 in Calm     90 % 0.00 in
05:52 35.7 °F 33.1 °F 30.28 in Calm     90 % 0.00 in
05:57 35.9 °F 33.3 °F 30.28 in Calm     90 % 0.00 in
06:02 36.0 °F 33.4 °F 30.28 in Calm     90 % 0.00 in
06:07 36.0 °F 33.4 °F 30.28 in Calm     90 % 0.00 in
06:12 36.0 °F 33.4 °F 30.28 in Calm     90 % 0.00 in
06:17 35.9 °F 33.3 °F 30.28 in Calm     90 % 0.00 in
06:22 35.9 °F 33.3 °F 30.28 in Calm     90 % 0.00 in
06:27 35.8 °F 33.2 °F 30.28 in Calm     90 % 0.00 in
06:32 35.7 °F 33.1 °F 30.28 in Calm     90 % 0.00 in
06:37 35.9 °F 33.3 °F 30.28 in Calm     90 % 0.00 in
06:42 36.1 °F 33.5 °F 30.28 in Calm     90 % 0.00 in
06:47 36.1 °F 33.5 °F 30.29 in Calm     90 % 0.00 in
06:52 36.3 °F 33.6 °F 30.29 in Calm     90 % 0.00 in
06:57 36.2 °F 33.5 °F 30.29 in Calm     90 % 0.00 in
07:02 36.1 °F 33.5 °F 30.29 in Calm     90 % 0.00 in
07:07 36.2 °F 33.5 °F 30.29 in Calm     90 % 0.00 in
07:12 36.4 °F 33.7 °F 30.29 in Calm     90 % 0.00 in
07:17 36.6 °F 33.9 °F 30.29 in Calm     90 % 0.00 in
07:22 36.8 °F 34.1 °F 30.30 in Calm     90 % 0.00 in
07:28 37.1 °F 34.7 °F 30.30 in Calm     91 % 0.00 in
07:33 37.5 °F 35.1 °F 30.30 in Calm     91 % 0.00 in
07:38 38.1 °F 35.7 °F 30.30 in Calm     91 % 0.00 in
07:43 38.8 °F 36.4 °F 30.30 in Calm     91 % 0.00 in
07:48 39.9 °F 37.5 °F 30.31 in Calm     91 % 0.00 in
07:53 41.0 °F 37.7 °F 30.31 in Calm     88 % 0.00 in
07:58 42.1 °F 38.2 °F 30.31 in Calm     86 % 0.00 in
08:03 43.3 °F 38.8 °F 30.31 in Calm     84 % 0.00 in
08:08 44.3 °F 39.2 °F 30.32 in Calm     82 % 0.00 in
08:13 45.5 °F 39.0 °F 30.32 in Calm     78 % 0.00 in
08:18 46.5 °F 39.0 °F 30.32 in Calm     75 % 0.00 in
08:23 47.2 °F 39.0 °F 30.32 in Calm     73 % 0.00 in
08:28 47.8 °F 39.2 °F 30.32 in Calm     72 % 0.00 in
08:33 48.4 °F 39.1 °F 30.32 in Calm     70 % 0.00 in
08:38 49.1 °F 39.4 °F 30.32 in Calm     69 % 0.00 in
08:43 49.6 °F 39.5 °F 30.33 in Calm     68 % 0.00 in
08:48 50.4 °F 39.9 °F 30.32 in Calm     67 % 0.00 in
08:53 51.5 °F 40.1 °F 30.32 in ESE 1.2 mph 1.2 mph 65 % 0.00 in
08:58 52.0 °F 39.8 °F 30.32 in SSE 1.2 mph   63 % 0.00 in
09:03 52.8 °F 40.1 °F 30.31 in Calm     62 % 0.00 in
09:08 53.2 °F 39.7 °F 30.31 in ESE 1.2 mph   60 % 0.00 in
09:13 53.3 °F 39.8 °F 30.31 in Calm     60 % 0.00 in
09:18 53.8 °F 40.2 °F 30.31 in Calm     60 % 0.00 in
09:23 54.3 °F 39.8 °F 30.31 in Calm     58 % 0.00 in
09:28 54.4 °F 39.9 °F 30.31 in Calm     58 % 0.00 in
09:33 54.7 °F 39.8 °F 30.30 in ENE 2.3 mph 2.3 mph 57 % 0.00 in
09:38 54.9 °F 39.9 °F 30.30 in SSE 2.3 mph   57 % 0.00 in
09:43 55.6 °F 39.7 °F 30.30 in Calm     55 % 0.00 in
09:48 56.4 °F 40.4 °F 30.30 in SSE 1.2 mph 1.2 mph 55 % 0.00 in
09:53 56.4 °F 40.0 °F 30.29 in SW 1.2 mph   54 % 0.00 in
09:58 56.7 °F 40.7 °F 30.29 in ESE 1.2 mph   55 % 0.00 in
10:03 56.9 °F 39.9 °F 30.29 in Calm     53 % 0.00 in
10:08 56.8 °F 39.8 °F 30.29 in NW 1.2 mph 1.2 mph 53 % 0.00 in
10:13 57.1 °F 40.1 °F 30.28 in ESE 1.2 mph   53 % 0.00 in
10:18 57.2 °F 39.7 °F 30.28 in NNW 2.3 mph 2.3 mph 52 % 0.00 in
10:23 57.4 °F 40.4 °F 30.28 in WNW 1.2 mph 1.2 mph 53 % 0.00 in
10:28 57.9 °F 40.4 °F 30.27 in Calm     52 % 0.00 in
10:33 58.6 °F 40.5 °F 30.27 in West 3.0 mph 3.0 mph 51 % 0.00 in
10:38 58.2 °F 40.6 °F 30.27 in NW 1.2 mph 1.2 mph 52 % 0.00 in
10:43 58.1 °F 40.6 °F 30.27 in NW 1.2 mph 1.2 mph 52 % 0.00 in
10:48 58.3 °F 40.7 °F 30.27 in WNW 1.2 mph 1.2 mph 52 % 0.00 in
10:53 58.8 °F 41.7 °F 30.27 in SSE 1.0 mph 1.0 mph 53 % 0.00 in
10:58 59.5 °F 42.8 °F 30.26 in SSE 1.2 mph   54 % 0.00 in
11:03 60.1 °F 41.4 °F 30.26 in NW 1.2 mph   50 % 0.00 in
11:08 60.0 °F 40.8 °F 30.26 in NW 2.3 mph 2.3 mph 49 % 0.00 in
11:13 60.1 °F 41.9 °F 30.25 in Calm     51 % 0.00 in
11:18 60.6 °F 42.4 °F 30.25 in SSW 3.5 mph   51 % 0.00 in
11:23 61.0 °F 43.2 °F 30.25 in WNW 1.0 mph 1.0 mph 52 % 0.00 in
11:28 61.3 °F 41.4 °F 30.25 in West 3.5 mph 3.5 mph 48 % 0.00 in
11:33 61.5 °F 43.7 °F 30.25 in South 1.2 mph   52 % 0.00 in
11:38 62.3 °F 42.3 °F 30.25 in NW 2.3 mph 2.3 mph 48 % 0.00 in
11:43 61.9 °F 41.4 °F 30.25 in NW 3.5 mph 3.5 mph 47 % 0.00 in
11:48 61.9 °F 41.4 °F 30.24 in WNW 1.2 mph   47 % 0.00 in
11:54 61.8 °F 41.9 °F 30.24 in NW 1.2 mph 1.2 mph 48 % 0.00 in
11:59 62.0 °F 41.5 °F 30.24 in NW 1.2 mph 1.2 mph 47 % 0.00 in
12:04 62.3 °F 41.8 °F 30.24 in NW 1.2 mph 1.2 mph 47 % 0.00 in
12:09 62.7 °F 39.9 °F 30.23 in SW 2.3 mph 2.3 mph 43 % 0.00 in
12:14 63.0 °F 40.7 °F 30.23 in NNW 1.2 mph 1.2 mph 44 % 0.00 in
12:19 63.3 °F 40.4 °F 30.22 in NNE 1.2 mph 1.2 mph 43 % 0.00 in
12:24 63.7 °F 41.4 °F 30.22 in NW 1.2 mph 1.2 mph 44 % 0.00 in
12:29 63.4 °F 39.9 °F 30.22 in WNW 2.3 mph 2.3 mph 42 % 0.00 in
12:34 63.3 °F 39.8 °F 30.21 in NNW 2.3 mph 2.3 mph 42 % 0.00 in
12:39 63.6 °F 40.1 °F 30.20 in West 1.2 mph 1.2 mph 42 % 0.00 in
12:44 63.9 °F 39.7 °F 30.20 in NNE 1.2 mph 1.2 mph 41 % 0.00 in
12:49 64.4 °F 41.4 °F 30.20 in SSW 1.0 mph   43 % 0.00 in
12:54 64.6 °F 41.0 °F 30.20 in NW 3.5 mph 3.5 mph 42 % 0.00 in
12:59 64.7 °F 41.7 °F 30.19 in SSW 1.2 mph 1.2 mph 43 % 0.00 in
13:04 64.5 °F 40.3 °F 30.19 in Calm     41 % 0.00 in
13:09 64.9 °F 40.0 °F 30.18 in WNW 2.3 mph 2.3 mph 40 % 0.00 in
13:14 64.7 °F 41.1 °F 30.18 in NW 2.3 mph 2.3 mph 42 % 0.00 in
13:19 64.7 °F 40.4 °F 30.18 in NW 3.5 mph 3.5 mph 41 % 0.00 in
13:24 64.5 °F 39.6 °F 30.17 in WSW 1.2 mph 1.2 mph 40 % 0.00 in
13:29 64.9 °F 40.6 °F 30.17 in Calm     41 % 0.00 in
13:34 65.3 °F 39.7 °F 30.17 in North 1.2 mph 1.2 mph 39 % 0.00 in
13:39 65.8 °F 40.8 °F 30.17 in NW 1.2 mph 1.2 mph 40 % 0.00 in
13:44 65.8 °F 40.1 °F 30.16 in North 1.2 mph 1.2 mph 39 % 0.00 in
13:49 66.2 °F 39.8 °F 30.16 in NW 1.2 mph 1.2 mph 38 % 0.00 in
13:54 66.2 °F 40.5 °F 30.16 in NW 2.3 mph 2.3 mph 39 % 0.00 in
13:59 66.0 °F 40.3 °F 30.16 in SW 1.2 mph 1.2 mph 39 % 0.00 in
14:04 66.3 °F 40.6 °F 30.16 in SSE 2.0 mph 2.0 mph 39 % 0.00 in
14:09 66.8 °F 39.7 °F 30.16 in NW 2.3 mph 2.3 mph 37 % 0.00 in
14:14 66.4 °F 38.6 °F 30.16 in North 2.3 mph 2.3 mph 36 % 0.00 in
14:19 66.1 °F 39.7 °F 30.15 in North 1.2 mph 1.2 mph 38 % 0.00 in
14:24 66.4 °F 38.6 °F 30.15 in Calm     36 % 0.00 in
14:29 66.4 °F 39.3 °F 30.15 in NW 3.5 mph 3.5 mph 37 % 0.00 in
14:34 66.2 °F 38.4 °F 30.15 in NW 3.5 mph 3.5 mph 36 % 0.00 in
14:39 66.4 °F 38.6 °F 30.15 in West 3.5 mph 3.5 mph 36 % 0.00 in
14:44 66.3 °F 38.5 °F 30.15 in NNE 2.3 mph 2.3 mph 36 % 0.00 in
14:49 66.0 °F 38.3 °F 30.15 in NW 1.2 mph 1.2 mph 36 % 0.00 in
14:54 66.2 °F 38.4 °F 30.15 in South 1.2 mph 1.2 mph 36 % 0.00 in
14:59 66.4 °F 38.6 °F 30.15 in NW 2.3 mph 2.3 mph 36 % 0.00 in
15:04 66.4 °F 37.9 °F 30.15 in NW 2.0 mph 2.0 mph 35 % 0.00 in
15:09 66.3 °F 37.8 °F 30.15 in NW 1.2 mph 1.2 mph 35 % 0.00 in
15:14 66.2 °F 37.7 °F 30.15 in NW 3.5 mph 3.5 mph 35 % 0.00 in
15:21 66.0 °F 38.3 °F 30.15 in NW 2.0 mph 2.0 mph 36 % 0.00 in
15:26 66.1 °F 35.4 °F 30.15 in NW 3.0 mph 3.0 mph 32 % 0.00 in
15:31 65.9 °F 36.7 °F 30.15 in NW 3.0 mph 3.0 mph 34 % 0.00 in
15:36 65.8 °F 36.6 °F 30.15 in NW 5.0 mph 5.0 mph 34 % 0.00 in
15:41 65.5 °F 35.6 °F 30.16 in WNW 3.5 mph 3.5 mph 33 % 0.00 in
15:46 65.3 °F 36.9 °F 30.16 in NNW 5.8 mph 5.8 mph 35 % 0.00 in
15:51 65.2 °F 36.1 °F 30.16 in WNW 4.6 mph 4.6 mph 34 % 0.00 in
15:56 65.3 °F 36.2 °F 30.16 in WNW 3.5 mph 3.5 mph 34 % 0.00 in
16:01 65.2 °F 36.1 °F 30.16 in WNW 2.3 mph 2.3 mph 34 % 0.00 in
16:06 65.2 °F 35.4 °F 30.16 in NW 3.5 mph 3.5 mph 33 % 0.00 in
16:07 65.2 °F 36.1 °F 30.16 in WNW 5.0 mph 5.0 mph 34 % 0.00 in
16:12 65.1 °F 35.3 °F 30.16 in WNW 3.5 mph 3.5 mph 33 % 0.00 in
16:17 65.0 °F 34.4 °F 30.16 in NW 2.0 mph 2.0 mph 32 % 0.00 in
16:22 64.9 °F 35.1 °F 30.16 in NW 2.3 mph 2.3 mph 33 % 0.00 in
16:29 64.6 °F 34.8 °F 30.16 in NW 2.3 mph 2.3 mph 33 % 0.00 in
16:34 64.5 °F 34.7 °F 30.15 in WNW 2.3 mph 2.3 mph 33 % 0.00 in
16:39 64.3 °F 34.6 °F 30.15 in Calm     33 % 0.00 in
16:44 64.1 °F 35.1 °F 30.15 in Calm     34 % 0.00 in
16:49 64.0 °F 35.0 °F 30.15 in West 1.2 mph   34 % 0.00 in
16:54 63.8 °F 34.9 °F 30.15 in SW 1.2 mph 1.2 mph 34 % 0.00 in
16:59 63.6 °F 35.4 °F 30.15 in Calm   0.1 mph 35 % 0.00 in
17:04 63.5 °F 35.3 °F 30.15 in Calm     35 % 0.00 in
17:09 63.3 °F 35.9 °F 30.15 in Calm     36 % 0.00 in
17:14 62.8 °F 36.1 °F 30.14 in Calm     37 % 0.00 in
17:19 62.2 °F 35.6 °F 30.15 in Calm     37 % 0.00 in
17:24 61.6 °F 36.4 °F 30.14 in Calm     39 % 0.00 in
17:29 60.9 °F 36.4 °F 30.15 in Calm     40 % 0.00 in
17:34 60.1 °F 38.1 °F 30.15 in Calm     44 % 0.00 in
17:42 59.1 °F 37.2 °F 30.15 in Calm     44 % 0.00 in
17:47 58.5 °F 37.8 °F 30.15 in Calm     46 % 0.00 in
17:52 57.9 °F 38.3 °F 30.15 in Calm     48 % 0.00 in
17:59 56.8 °F 39.4 °F 30.15 in Calm     52 % 0.00 in
18:04 56.2 °F 39.8 °F 30.15 in Calm     54 % 0.00 in
18:09 55.5 °F 39.1 °F 30.15 in Calm     54 % 0.00 in
18:14 55.2 °F 38.4 °F 30.15 in Calm     53 % 0.00 in
18:19 54.9 °F 38.6 °F 30.15 in Calm     54 % 0.00 in
18:24 54.3 °F 38.0 °F 30.15 in Calm     54 % 0.00 in
18:29 53.9 °F 38.6 °F 30.15 in Calm     56 % 0.00 in
18:34 53.4 °F 38.5 °F 30.15 in Calm     57 % 0.00 in
18:39 53.1 °F 39.1 °F 30.15 in Calm     59 % 0.00 in
18:44 53.3 °F 39.8 °F 30.15 in Calm     60 % 0.00 in
18:50 53.1 °F 39.6 °F 30.15 in Calm     60 % 0.00 in
18:55 52.8 °F 38.9 °F 30.15 in Calm     59 % 0.00 in
19:00 52.8 °F 38.4 °F 30.15 in Calm     58 % 0.00 in
19:05 52.8 °F 38.4 °F 30.16 in Calm     58 % 0.00 in
19:10 52.6 °F 37.8 °F 30.16 in Calm     57 % 0.00 in
19:15 52.2 °F 38.7 °F 30.16 in Calm     60 % 0.00 in
19:20 51.8 °F 38.3 °F 30.16 in Calm     60 % 0.00 in
19:25 51.7 °F 38.3 °F 30.17 in Calm     60 % 0.00 in
19:30 51.5 °F 38.1 °F 30.17 in Calm     60 % 0.00 in
19:35 51.8 °F 37.9 °F 30.17 in Calm     59 % 0.00 in
19:40 52.4 °F 37.6 °F 30.17 in Calm     57 % 0.00 in
19:45 52.4 °F 38.5 °F 30.17 in Calm     59 % 0.00 in
19:50 51.9 °F 38.4 °F 30.17 in Calm     60 % 0.00 in
19:55 51.6 °F 38.2 °F 30.17 in Calm     60 % 0.00 in
20:00 51.0 °F 37.6 °F 30.17 in Calm     60 % 0.00 in
20:05 50.7 °F 37.7 °F 30.17 in Calm     61 % 0.00 in
20:10 50.6 °F 36.4 °F 30.17 in Calm     58 % 0.00 in
20:15 51.0 °F 37.2 °F 30.17 in Calm     59 % 0.00 in
20:20 50.7 °F 36.9 °F 30.18 in Calm     59 % 0.00 in
20:25 50.1 °F 36.7 °F 30.18 in Calm     60 % 0.00 in
20:30 49.6 °F 37.1 °F 30.18 in Calm     62 % 0.00 in
20:35 49.3 °F 37.2 °F 30.18 in Calm     63 % 0.00 in
20:40 49.1 °F 37.4 °F 30.19 in Calm     64 % 0.00 in
20:45 48.9 °F 37.3 °F 30.19 in Calm     64 % 0.00 in
20:50 48.8 °F 37.2 °F 30.19 in Calm     64 % 0.00 in
20:55 48.7 °F 37.5 °F 30.19 in Calm     65 % 0.00 in
21:00 48.4 °F 38.3 °F 30.19 in Calm     68 % 0.00 in
21:05 48.0 °F 37.6 °F 30.19 in Calm     67 % 0.00 in
21:10 47.7 °F 38.0 °F 30.19 in Calm     69 % 0.00 in
21:15 47.2 °F 38.3 °F 30.19 in WNW 1.2 mph 1.2 mph 71 % 0.00 in
21:20 46.0 °F 37.5 °F 30.19 in Calm     72 % 0.00 in
21:25 45.7 °F 37.5 °F 30.19 in Calm     73 % 0.00 in
21:30 45.9 °F 37.7 °F 30.19 in Calm     73 % 0.00 in
21:35 45.9 °F 37.7 °F 30.19 in Calm     73 % 0.00 in
21:40 45.9 °F 37.7 °F 30.19 in Calm     73 % 0.00 in
21:45 45.7 °F 37.5 °F 30.19 in Calm     73 % 0.00 in
21:50 45.7 °F 37.5 °F 30.20 in Calm     73 % 0.00 in
21:55 46.2 °F 37.7 °F 30.20 in WNW 1.2 mph   72 % 0.00 in
22:00 46.5 °F 37.6 °F 30.20 in Calm     71 % 0.00 in
22:05 46.4 °F 37.5 °F 30.19 in Calm     71 % 0.00 in
22:10 46.1 °F 37.2 °F 30.19 in Calm     71 % 0.00 in
22:15 45.7 °F 37.2 °F 30.19 in Calm     72 % 0.00 in
22:20 44.7 °F 36.6 °F 30.20 in Calm     73 % 0.00 in
22:25 44.1 °F 36.7 °F 30.20 in Calm     75 % 0.00 in
22:30 43.7 °F 36.3 °F 30.20 in Calm     75 % 0.00 in
22:35 43.3 °F 36.6 °F 30.20 in Calm     77 % 0.00 in
22:40 42.8 °F 36.1 °F 30.20 in Calm     77 % 0.00 in
22:45 42.4 °F 36.3 °F 30.21 in Calm     79 % 0.00 in
22:50 42.5 °F 36.4 °F 30.21 in Calm     79 % 0.00 in
22:55 42.5 °F 36.4 °F 30.21 in Calm     79 % 0.00 in
23:00 42.5 °F 36.8 °F 30.21 in Calm     80 % 0.00 in
23:05 42.4 °F 36.7 °F 30.21 in Calm     80 % 0.00 in
23:10 42.1 °F 36.1 °F 30.20 in Calm     79 % 0.00 in
23:15 41.9 °F 36.2 °F 30.20 in Calm     80 % 0.00 in
23:20 41.8 °F 36.1 °F 30.20 in Calm     80 % 0.00 in
23:25 41.7 °F 36.3 °F 30.20 in Calm     81 % 0.00 in
23:30 41.7 °F 36.3 °F 30.20 in Calm     81 % 0.00 in
23:35 41.7 °F 36.3 °F 30.21 in Calm     81 % 0.00 in
23:40 41.7 °F 36.3 °F 30.20 in Calm     81 % 0.00 in
23:45 41.6 °F 35.9 °F 30.20 in Calm     80 % 0.00 in
23:50 41.3 °F 35.9 °F 30.20 in Calm     81 % 0.00 in
23:55 41.6 °F 36.2 °F 30.20 in Calm     81 % 0.00 in
Park Place, Exeter, Tulare County, California, USA
Compliments of Weather Underground - 2.75 mb